Ruth, Nevada
Current Conditions -  °F | °C
As of 8:53 AM on Thursday 30 Oct 2014 (Local Time) from KELY Reporting Station
Clear Clear  
Wind Chill:   Ceiling: Unl
Heat Index:   Visibility: 10mi
Dew Point: -7°   Wind: 9mph
Humidity: 38%   Direction: 160°SSE
Pressure: 30.31"   Gusts: NA
Location:  39.28°N, 114.99°W
Report Text: KELY 301553Z AUTO 16008KT 10SM CLR 06/M07 A3031 RMK AO2 SLP233 T00611072
Loading
Personal Weather Stations






























Interactive Weather Map
Tropical Storm Tracking
New forecast layout! Learn more

10-Day Weather Forecast

Advertisements
Track Severe Weather on mobile